LRBS Airport Information

Runway Information
Runway 07 Length 10499 ft width 148 ft
Elevation 297 ft Threshold 787 ft Heading 74
Runway 25 Length 10499 ft Width 148 ft
Elevation 292 ft Threshold 2609 ft Heading 254
Airport Frequencies
Type APP Name APP Frequency 118.25 MHZ
Type GCA Name PRECISION Frequency 125.2 MHZ
Type GND Name GND Frequency 129.95 MHZ
Type TWR Name TWR Frequency 120.8 MHZ
Airport Navaids
Type NDB Name Baneasa Southeast Frequency 256 KHZ
Type NDB Name Baneasa Southwest Frequency 521 KHZ
Airport Weather Information & NOTAM
ADDS - METARS form results

(1807 UTC 22 August 2019)
Data provider http://aviationweather.gov/metar/data/
 
METAR text: LRBS 221800Z 08003KT CAVOK 26/13 Q1021 NOSIG
Conditions at: LRBS (BUCHAREST/BANEAS, RO) observed 1800 UTC 22 August 2019
Temperature: 26.0°C (79°F)
Dewpoint: 13.0°C (55°F) [RH = 45%]
Pressure (altimeter): 30.15 inches Hg (1021.0 mb)
Winds: from the E (80 degrees) at 3 MPH (3 knots; 1.5 m/s)
Visibility: 6 or more miles (10+ km)
Ceiling: ceiling and visibility are OK
Clouds: unknown
Weather: no significant weather observed at this time

METAR text: LRBS 221730Z 06005KT CAVOK 26/13 Q1021 NOSIG
Conditions at: LRBS (BUCHAREST/BANEAS, RO) observed 1730 UTC 22 August 2019
Temperature: 26.0°C (79°F)
Dewpoint: 13.0°C (55°F) [RH = 45%]
Pressure (altimeter): 30.15 inches Hg (1021.0 mb)
Winds: from the ENE (60 degrees) at 6 MPH (5 knots; 2.6 m/s)
Visibility: 6 or more miles (10+ km)
Ceiling: ceiling and visibility are OK
Clouds: unknown
Weather: no significant weather observed at this time

Forecast for: LRBS (BUCHAREST/BANEAS, RO)
Text: TAF LRBS 221700Z 2218/2318 07010KT CAVOK
Forecast period: 1800 UTC 22 August 2019 to 1800 UTC 23 August 2019
Forecast type: FROM: standard forecast or significant change
Winds: from the ENE (70 degrees) at 12 MPH (10 knots; 5.1 m/s)
Visibility: 6 or more miles 10+ km)
Ceiling: unknown
Clouds: missing
Weather: NSW  (no significant weather)